createdAt,value
2019-01-11T00:00:12.609Z,20.6
2019-01-11T00:01:02.973Z,20.6
2019-01-11T00:01:52.201Z,20.6
2019-01-11T00:02:42.506Z,20.6
2019-01-11T00:03:32.562Z,20.6
2019-01-11T00:04:22.888Z,20.6
2019-01-11T00:05:12.998Z,20.6
2019-01-11T00:06:02.171Z,20.6
2019-01-11T00:06:52.506Z,20.5
2019-01-11T00:07:43.119Z,20.6
2019-01-11T00:08:32.671Z,20.5
2019-01-11T00:09:22.946Z,20.5
2019-01-11T00:10:13.021Z,20.4
2019-01-11T00:11:03.405Z,20.5
2019-01-11T00:11:53.121Z,20.5
2019-01-11T00:12:43.169Z,20.4
2019-01-11T00:13:33.527Z,20.4
2019-01-11T00:14:23.855Z,20.4
2019-01-11T00:15:13.357Z,20.4
2019-01-11T00:16:03.708Z,20.4
2019-01-11T00:34:26.625Z,20.3
2019-01-11T00:35:17.374Z,20.3
2019-01-11T00:36:07.449Z,20.3
2019-01-11T00:36:56.995Z,20.3
2019-01-11T00:37:46.747Z,20.3
2019-01-11T00:38:36.774Z,20.3
2019-01-11T00:39:27.134Z,20.3
2019-01-11T00:40:16.901Z,20.3
2019-01-11T00:41:07.498Z,20.3
2019-01-11T00:41:57.054Z,20.3
2019-01-11T00:42:47.333Z,20.3
2019-01-11T00:43:37.376Z,20.3
2019-01-11T00:44:27.176Z,20.3
2019-01-11T00:45:17.488Z,20.3
2019-01-11T00:46:07.295Z,20.3
2019-01-11T00:46:56.791Z,20.3
2019-01-11T00:47:47.111Z,20.3
2019-01-11T00:48:37.725Z,20.3
2019-01-11T00:49:27.909Z,20.3
2019-01-11T00:50:18.166Z,20.3
2019-01-11T00:51:07.623Z,20.3
2019-01-11T00:51:57.668Z,20.3
2019-01-11T00:52:48.004Z,20.3
2019-01-11T00:53:38.100Z,20.2
2019-01-11T00:54:27.348Z,20.3
2019-01-11T00:55:18.510Z,20.3
2019-01-11T00:56:08.543Z,20.3
2019-01-11T00:56:57.800Z,20.2
2019-01-11T00:57:47.883Z,20.3
2019-01-11T00:58:38.415Z,20.2
2019-01-11T00:59:28.732Z,20.3
2019-01-11T01:00:17.977Z,20.2
2019-01-11T01:01:08.026Z,20.2
2019-01-11T01:01:58.087Z,20.2
2019-01-11T01:02:48.754Z,20.2
2019-01-11T01:03:39.062Z,20.2
2019-01-11T01:04:28.523Z,20.2
2019-01-11T01:05:18.594Z,20.2
2019-01-11T01:06:08.979Z,20.2
2019-01-11T01:06:59.017Z,20.2
2019-01-11T01:07:49.079Z,20.2
2019-01-11T01:08:39.082Z,20.1
2019-01-11T01:09:28.572Z,20.2
2019-01-11T01:10:19.509Z,20.2
2019-01-11T01:11:08.704Z,20.2
2019-01-11T01:11:59.963Z,20.2
2019-01-11T01:12:48.817Z,20.2
2019-01-11T01:13:39.145Z,20.2
2019-01-11T01:14:29.539Z,20.2
2019-01-11T01:15:19.887Z,20.2
2019-01-11T01:16:09.576Z,20.1
2019-01-11T01:16:59.907Z,20.2
2019-01-11T01:17:49.707Z,20.1
2019-01-11T01:18:40.052Z,20.1
2019-01-11T01:19:29.815Z,20.2
2019-01-11T01:20:19.916Z,20.1
2019-01-11T01:21:10.248Z,20.1
2019-01-11T01:22:00.321Z,20.2
2019-01-11T01:22:50.032Z,20.2
2019-01-11T01:23:40.116Z,20.1
2019-01-11T01:24:30.168Z,20.1
2019-01-11T01:25:20.216Z,20.1
2019-01-11T01:26:09.999Z,20.1
2019-01-11T01:26:59.786Z,20.1
2019-01-11T01:27:50.402Z,20.1
2019-01-11T01:28:39.812Z,20.1
2019-01-11T01:29:29.865Z,20.1
2019-01-11T01:30:20.168Z,20.1
2019-01-11T01:31:09.898Z,20.1
2019-01-11T01:32:00.178Z,20.1
2019-01-11T01:32:50.523Z,20.1
2019-01-11T01:33:40.307Z,20.1
2019-01-11T01:34:30.346Z,20.1
2019-01-11T01:35:20.097Z,20.1
2019-01-11T01:36:10.398Z,20.1
2019-01-11T01:37:01.018Z,20.1
2019-01-11T01:37:51.602Z,20.1
2019-01-11T01:38:41.398Z,20.1
2019-01-11T01:39:31.165Z,20.1
2019-01-11T01:40:21.512Z,20.1
2019-01-11T01:41:10.510Z,20.1
2019-01-11T01:42:01.618Z,20.1
2019-01-11T01:42:51.952Z,20.1
2019-01-11T01:43:41.724Z,20.1
2019-01-11T01:44:31.518Z,20.1
2019-01-11T01:45:21.349Z,20.1
2019-01-11T01:46:11.915Z,20.1
2019-01-11T01:47:01.963Z,20.1
2019-01-11T01:47:51.474Z,20.1
2019-01-11T01:48:41.817Z,20.1
2019-01-11T01:49:32.072Z,20.1
2019-01-11T01:50:21.682Z,20.2
2019-01-11T01:51:11.689Z,20.1
2019-01-11T01:52:02.581Z,20.1
2019-01-11T01:52:51.856Z,20.1
2019-01-11T01:53:42.419Z,20.1
2019-01-11T01:54:32.481Z,20.2
2019-01-11T01:55:22.247Z,20.1
2019-01-11T01:56:12.044Z,20.1
2019-01-11T01:57:02.642Z,20.1
2019-01-11T01:57:52.430Z,20.1
2019-01-11T01:58:42.456Z,20.1
2019-01-11T01:59:31.981Z,20.1
2019-01-11T02:00:21.576Z,20.1
2019-01-11T02:01:11.896Z,20.1
2019-01-11T02:02:02.277Z,20.1
2019-01-11T02:02:52.259Z,20.1
2019-01-11T02:03:42.633Z,20.3
2019-01-11T02:04:32.719Z,20.3
2019-01-11T02:05:22.181Z,20.4
2019-01-11T02:06:13.028Z,20.6
2019-01-11T02:07:02.846Z,20.8
2019-01-11T02:07:52.891Z,21
2019-01-11T02:08:42.666Z,21.3
2019-01-11T02:09:32.178Z,21.5
2019-01-11T02:10:22.518Z,21.8
2019-01-11T02:11:13.119Z,22.1
2019-01-11T02:12:02.855Z,22.4
2019-01-11T02:12:54.020Z,22.7
2019-01-11T02:13:43.220Z,23
2019-01-11T02:14:32.998Z,23.3
2019-01-11T02:15:23.586Z,23.6
2019-01-11T02:16:12.878Z,23.9
2019-01-11T02:17:03.212Z,24.3
2019-01-11T02:17:53.490Z,24.6
2019-01-11T02:18:44.105Z,24.9
2019-01-11T02:19:38.785Z,25.3
2019-01-11T02:20:23.423Z,25.6
2019-01-11T02:21:13.201Z,25.9
2019-01-11T02:22:04.075Z,26.1
2019-01-11T02:22:53.845Z,26.4
2019-01-11T02:23:44.447Z,26.7
2019-01-11T02:24:34.230Z,26.9
2019-01-11T02:25:23.997Z,27.2
2019-01-11T02:26:14.112Z,27.4
2019-01-11T02:27:03.929Z,27.6
2019-01-11T02:28:44.229Z,28
2019-01-11T02:29:33.247Z,28.2
2019-01-11T02:30:24.530Z,28.4
2019-01-11T02:31:14.742Z,28.5
2019-01-11T02:32:05.347Z,28.6
2019-01-11T02:32:57.912Z,28.8
2019-01-11T02:33:44.849Z,28.9
2019-01-11T02:34:34.409Z,29.1
2019-01-11T02:35:25.380Z,29.2
2019-01-11T02:36:13.912Z,29.3
2019-01-11T02:37:05.726Z,29.4
2019-01-11T02:37:54.904Z,29.5
2019-01-11T02:38:45.494Z,29.6
2019-01-11T02:39:35.294Z,29.7
2019-01-11T02:40:25.721Z,29.8
2019-01-11T02:41:15.102Z,29.9
2019-01-11T02:42:05.785Z,30
2019-01-11T02:42:54.683Z,30.1
2019-01-11T02:43:45.283Z,30.2
2019-01-11T02:44:36.638Z,30.3
2019-01-11T02:45:25.661Z,30.4
2019-01-11T02:46:15.169Z,30.5
2019-01-11T02:47:06.038Z,30.6
2019-01-11T02:47:55.858Z,30.7
2019-01-11T02:48:45.865Z,30.8
2019-01-11T02:49:43.149Z,30.9
2019-01-11T02:50:26.638Z,31
2019-01-11T02:51:15.861Z,31.1
2019-01-11T02:52:06.660Z,31.2
2019-01-11T02:52:56.227Z,31.3
2019-01-11T02:53:46.261Z,31.4
2019-01-11T02:54:36.605Z,31.4
2019-01-11T02:55:26.947Z,31.6
2019-01-11T02:56:16.118Z,31.6
2019-01-11T02:57:06.217Z,31.8
2019-01-11T02:57:56.480Z,31.8
2019-01-11T02:58:46.834Z,31.9
2019-01-11T02:59:36.932Z,32
2019-01-11T03:00:26.413Z,32.1
2019-01-11T03:01:16.487Z,32.2
2019-01-11T03:02:06.852Z,32.3
2019-01-11T03:02:56.844Z,32.4
2019-01-11T03:03:46.379Z,32.4
2019-01-11T03:04:36.962Z,32.5
2019-01-11T03:05:28.277Z,32.6
2019-01-11T03:06:16.775Z,32.7
2019-01-11T03:07:07.141Z,32.8
2019-01-11T03:07:56.644Z,32.9
2019-01-11T03:08:47.493Z,32.9
2019-01-11T03:09:37.036Z,32.9
2019-01-11T03:10:26.239Z,33
2019-01-11T03:11:17.402Z,33.1
2019-01-11T03:12:07.485Z,33.1
2019-01-11T03:12:57.522Z,33.2
2019-01-11T03:13:47.633Z,33.3
2019-01-11T03:14:37.675Z,33.3
2019-01-11T03:15:27.234Z,33.4
2019-01-11T03:16:18.243Z,33.4
2019-01-11T03:17:07.803Z,33.5
2019-01-11T03:17:57.590Z,33.6
2019-01-11T03:18:48.236Z,33.6
2019-01-11T03:19:37.451Z,33.7
2019-01-11T03:20:28.098Z,33.8
2019-01-11T03:21:18.423Z,33.8
2019-01-11T03:22:07.866Z,33.9
2019-01-11T03:22:57.918Z,33.9
2019-01-11T03:23:48.853Z,34
2019-01-11T03:24:38.343Z,34.1
2019-01-11T03:25:27.544Z,34.1
2019-01-11T03:26:18.418Z,34.1
2019-01-11T03:27:08.213Z,34.2
2019-01-11T03:27:59.118Z,34.2
2019-01-11T03:28:48.605Z,34.3
2019-01-11T03:29:39.255Z,34.3
2019-01-11T03:30:28.316Z,34.3
2019-01-11T03:31:19.434Z,34.3
2019-01-11T03:32:08.936Z,34.4
2019-01-11T03:32:58.559Z,34.4
2019-01-11T03:33:48.374Z,34.4
2019-01-11T03:34:39.582Z,34.4
2019-01-11T03:35:29.165Z,34.5
2019-01-11T03:36:19.410Z,34.6
2019-01-11T03:37:09.188Z,34.6
2019-01-11T03:37:58.945Z,34.6
2019-01-11T03:38:49.041Z,34.6
2019-01-11T03:39:39.117Z,34.6
2019-01-11T03:40:29.727Z,34.7
2019-01-11T03:41:18.598Z,34.7
2019-01-11T03:42:09.800Z,34.7
2019-01-11T03:42:59.575Z,34.7
2019-01-11T03:43:49.628Z,34.8
2019-01-11T03:44:39.695Z,34.8
2019-01-11T03:45:31.069Z,34.8
2019-01-11T03:46:19.807Z,34.8
2019-01-11T03:47:09.837Z,34.8
2019-01-11T03:48:00.487Z,34.8
2019-01-11T03:48:50.314Z,34.9
2019-01-11T03:49:40.556Z,34.9
2019-01-11T03:50:30.094Z,34.9
2019-01-11T03:51:20.149Z,34.9
2019-01-11T03:52:09.623Z,34.9
2019-01-11T03:52:59.990Z,34.9
2019-01-11T03:53:50.284Z,35
2019-01-11T03:54:39.286Z,35
2019-01-11T03:55:30.403Z,35
2019-01-11T03:56:21.094Z,35
2019-01-11T03:57:10.499Z,35
2019-01-11T03:58:00.291Z,35.1
2019-01-11T03:58:50.611Z,35.1
2019-01-11T03:59:40.722Z,35.1
2019-01-11T04:00:30.749Z,35.1
2019-01-11T04:01:19.993Z,35.1
2019-01-11T04:02:09.766Z,35.1
2019-01-11T04:03:00.379Z,35.1
2019-01-11T04:03:50.389Z,35.2
2019-01-11T04:04:39.653Z,35.2
2019-01-11T04:05:30.841Z,35.2
2019-01-11T04:06:21.693Z,35.2
2019-01-11T04:07:10.629Z,35.2
2019-01-11T04:08:01.526Z,35.2
2019-01-11T04:08:50.881Z,35.2
2019-01-11T04:09:40.833Z,35.3
2019-01-11T04:10:30.928Z,35.3
2019-01-11T04:11:21.845Z,35.2
2019-01-11T04:12:10.717Z,35.3
2019-01-11T04:13:01.606Z,35.3
2019-01-11T04:13:51.376Z,35.3
2019-01-11T04:14:41.455Z,35.3
2019-01-11T04:15:32.085Z,35.3
2019-01-11T04:16:21.740Z,35.3
2019-01-11T04:17:12.145Z,35.2
2019-01-11T04:18:01.926Z,35.3
2019-01-11T04:18:52.253Z,35.3
2019-01-11T04:19:42.025Z,35.3
2019-01-11T04:20:32.387Z,35.3
2019-01-11T04:21:21.903Z,35.3
2019-01-11T04:22:11.987Z,35.3
2019-01-11T04:23:02.272Z,35.3
2019-01-11T04:23:51.886Z,35.3
2019-01-11T04:24:42.994Z,35.3
2019-01-11T04:25:32.837Z,35.3
2019-01-11T04:26:21.995Z,35.3
2019-01-11T04:27:12.559Z,35.3
2019-01-11T04:28:02.076Z,35.3
2019-01-11T04:28:52.767Z,35.3
2019-01-11T04:29:42.185Z,35.3
2019-01-11T04:30:32.569Z,35.3
2019-01-11T04:31:22.535Z,35.3
2019-01-11T04:32:13.177Z,35.3
2019-01-11T04:33:03.264Z,35.3
2019-01-11T04:33:53.306Z,35.3
2019-01-11T04:34:43.076Z,35.3
2019-01-11T04:35:33.692Z,35.3
2019-01-11T04:36:23.180Z,35.3
2019-01-11T04:37:13.246Z,35.3
2019-01-11T04:38:03.583Z,35.3
2019-01-11T04:38:52.794Z,35.3
2019-01-11T04:39:43.753Z,35.3
2019-01-11T04:40:39.320Z,35.3
2019-01-11T04:41:23.247Z,35.3
2019-01-11T04:42:13.864Z,35.3
2019-01-11T04:43:03.912Z,35.3
2019-01-11T04:43:53.438Z,35.3
2019-01-11T04:44:44.035Z,35.3
2019-01-11T04:45:34.205Z,35.3
2019-01-11T04:46:23.911Z,35.3
2019-01-11T05:04:58.157Z,35.1
2019-01-11T05:05:27.539Z,35.1
2019-01-11T05:06:28.887Z,35.1
2019-01-11T05:07:57.512Z,35.1
2019-01-11T05:08:31.938Z,35.1
2019-01-11T05:09:57.426Z,35.1
2019-01-11T05:10:33.293Z,35.1
2019-01-11T09:18:12.098Z,29.8
2019-01-11T09:19:01.491Z,29.8
2019-01-11T09:19:52.309Z,29.8
2019-01-11T09:20:42.885Z,29.8
2019-01-11T09:21:33.061Z,29.8
2019-01-11T09:22:22.988Z,29.8
2019-01-11T09:23:11.693Z,29.8
2019-01-11T09:24:02.585Z,29.7
2019-01-11T09:24:52.370Z,29.7
2019-01-11T09:25:42.430Z,29.7
2019-01-11T09:26:32.443Z,29.7
2019-01-11T09:27:21.953Z,29.7
2019-01-11T09:28:13.402Z,29.6
2019-01-11T09:29:03.522Z,29.6
2019-01-11T09:29:53.206Z,29.6
2019-01-11T09:30:42.997Z,29.6
2019-01-11T09:31:33.053Z,29.6
2019-01-11T09:32:23.406Z,29.6
2019-01-11T09:33:13.452Z,29.6
2019-01-11T09:34:03.777Z,29.6
2019-01-11T09:34:53.300Z,29.5
2019-01-11T09:35:43.337Z,29.6
2019-01-11T09:36:33.216Z,29.5
2019-01-11T09:37:23.447Z,29.5
2019-01-11T09:38:13.648Z,29.5
2019-01-11T09:39:03.352Z,29.5
2019-01-11T09:39:53.949Z,29.4
2019-01-11T09:40:43.687Z,29.4
2019-01-11T09:41:33.739Z,29.4
2019-01-11T09:42:23.839Z,29.4
2019-01-11T09:43:13.872Z,29.4
2019-01-11T09:44:03.925Z,29.4
2019-01-11T09:44:53.966Z,29.4
2019-01-11T09:45:44.011Z,29.4
2019-01-11T09:46:34.356Z,29.3
2019-01-11T09:47:24.661Z,29.3
2019-01-11T09:48:14.514Z,29.3
2019-01-11T09:49:03.971Z,29.3
2019-01-11T09:49:54.719Z,29.3
2019-01-11T09:50:44.134Z,29.3
2019-01-11T09:51:33.843Z,29.3
2019-01-11T09:52:24.464Z,29.2
2019-01-11T09:53:13.978Z,29.2
2019-01-11T09:54:04.866Z,29.2
2019-01-11T09:54:55.196Z,29.2
2019-01-11T09:55:43.581Z,29.1
2019-01-11T09:56:35.069Z,29.1
2019-01-11T09:57:25.076Z,29.1
2019-01-11T09:58:15.176Z,29.1
2019-01-11T09:59:04.760Z,29.1
2019-01-11T09:59:54.943Z,29
2019-01-11T10:00:45.934Z,29
2019-01-11T10:01:35.099Z,29
2019-01-11T10:02:25.138Z,28.9
2019-01-11T10:03:15.796Z,28.9
2019-01-11T10:04:05.354Z,28.9
2019-01-11T10:04:55.155Z,28.8
2019-01-11T10:05:45.360Z,28.8
2019-01-11T10:06:35.215Z,28.8
2019-01-11T10:07:25.201Z,28.7
2019-01-11T10:08:15.815Z,28.7
2019-01-11T10:09:05.593Z,28.6
2019-01-11T10:09:55.933Z,28.6
2019-01-11T10:10:45.435Z,28.6
2019-01-11T10:11:35.487Z,28.6
2019-01-11T10:12:25.553Z,28.6
2019-01-11T10:13:15.587Z,28.5
2019-01-11T10:14:05.687Z,28.5
2019-01-11T10:14:56.280Z,28.5
2019-01-11T10:15:46.595Z,28.4
2019-01-11T10:16:36.097Z,28.4
2019-01-11T10:17:26.167Z,28.4
2019-01-11T10:18:16.485Z,28.4
2019-01-11T10:19:05.997Z,28.4
2019-01-11T10:19:56.367Z,28.4
2019-01-11T10:20:46.117Z,28.4
2019-01-11T10:21:36.147Z,28.3
2019-01-11T10:22:26.497Z,28.3
2019-01-11T10:23:16.534Z,28.3
2019-01-11T10:24:06.656Z,28.3
2019-01-11T10:24:56.692Z,28.3
2019-01-11T10:25:46.429Z,28.3
2019-01-11T10:26:36.791Z,28.3
2019-01-11T10:27:26.608Z,28.3
2019-01-11T10:28:17.141Z,28.3
2019-01-11T10:29:06.659Z,28.2
2019-01-11T10:29:56.438Z,28.2
2019-01-11T10:30:47.591Z,28.2
2019-01-11T10:31:36.834Z,28.2
2019-01-11T10:32:26.899Z,28.1
2019-01-11T10:33:17.214Z,28.1
2019-01-11T10:34:07.811Z,28.1
2019-01-11T10:34:57.589Z,28.1
2019-01-11T10:35:47.685Z,28.1
2019-01-11T10:36:37.436Z,28.1
2019-01-11T10:37:27.476Z,28.1
2019-01-11T10:38:17.837Z,28.1
2019-01-11T10:39:07.905Z,28.1
2019-01-11T10:39:58.216Z,28.1
2019-01-11T10:40:47.756Z,28.1
2019-01-11T10:41:38.056Z,28
2019-01-11T10:42:28.158Z,28
2019-01-11T10:43:17.900Z,28
2019-01-11T10:44:08.235Z,28
2019-01-11T10:44:58.268Z,28
2019-01-11T10:45:48.085Z,28
2019-01-11T10:46:38.398Z,27.9
2019-01-11T10:47:28.443Z,27.9
2019-01-11T10:48:17.974Z,27.9
2019-01-11T10:49:08.273Z,27.9
2019-01-11T10:49:58.325Z,27.9
2019-01-11T10:50:48.476Z,27.9
2019-01-11T10:51:38.745Z,27.9
2019-01-11T10:52:28.766Z,27.9
2019-01-11T10:55:48.443Z,27.8
2019-01-11T10:56:39.038Z,27.8
2019-01-11T10:57:29.112Z,27.8
2019-01-11T10:58:18.632Z,27.8
2019-01-11T10:59:09.227Z,27.7
2019-01-11T10:59:59.263Z,27.7
2019-01-11T11:00:49.246Z,27.7
2019-01-11T11:01:39.377Z,27.6
2019-01-11T11:02:29.164Z,27.6
2019-01-11T11:03:19.531Z,27.6
2019-01-11T11:04:09.008Z,27.6
2019-01-11T11:04:58.497Z,27.6
2019-01-11T11:05:49.177Z,27.5
2019-01-11T11:06:39.477Z,27.5
2019-01-11T11:07:29.557Z,27.5
2019-01-11T11:08:20.111Z,27.5
2019-01-11T11:09:09.936Z,27.4
2019-01-11T11:09:59.686Z,27.4
2019-01-11T11:10:49.176Z,27.4
2019-01-11T11:11:39.817Z,27.4
2019-01-11T11:12:30.116Z,27.4
2019-01-11T11:13:19.904Z,27.4
2019-01-11T11:14:10.016Z,27.4
2019-01-11T11:14:59.726Z,27.4
2019-01-11T11:15:50.341Z,27.4
2019-01-11T11:16:40.178Z,27.3
2019-01-11T11:17:29.681Z,27.3
2019-01-11T11:18:20.516Z,27.3
2019-01-11T11:19:09.988Z,27.3
2019-01-11T11:19:59.859Z,27.3
2019-01-11T11:20:50.411Z,27.3
2019-01-11T11:21:40.746Z,27.3
2019-01-11T11:22:29.974Z,27.3
2019-01-11T11:23:20.348Z,27.3
2019-01-11T11:24:09.801Z,27.3
2019-01-11T11:25:00.961Z,27.3
2019-01-11T11:25:50.468Z,27.2
2019-01-11T11:26:40.854Z,27.1
2019-01-11T11:27:30.275Z,27.1
2019-01-11T11:28:20.638Z,27.1
2019-01-11T11:29:12.460Z,27.1
2019-01-11T11:30:00.807Z,27
2019-01-11T11:30:56.683Z,27
2019-01-11T11:31:41.428Z,27
2019-01-11T11:32:31.258Z,27
2019-01-11T11:33:20.695Z,26.9
2019-01-11T11:34:11.293Z,26.9
2019-01-11T11:35:01.631Z,26.9
2019-01-11T11:35:51.412Z,26.9
2019-01-11T11:36:41.278Z,26.9
2019-01-11T11:37:31.525Z,26.9
2019-01-11T11:38:21.836Z,26.9
2019-01-11T11:39:11.912Z,26.9
2019-01-11T11:40:00.700Z,26.9
2019-01-11T11:40:51.492Z,26.9
2019-01-11T11:41:41.329Z,26.9
2019-01-11T11:42:31.112Z,26.9
2019-01-11T11:43:21.910Z,26.9
2019-01-11T11:44:11.967Z,26.8
2019-01-11T11:45:02.087Z,26.8
2019-01-11T11:45:52.122Z,26.8
2019-01-11T11:46:41.662Z,26.8
2019-01-11T11:47:31.787Z,26.8
2019-01-11T11:48:22.055Z,26.8
2019-01-11T11:49:12.306Z,26.8
2019-01-11T11:50:02.151Z,26.8
2019-01-11T11:50:52.432Z,26.7
2019-01-11T11:51:46.926Z,26.7
2019-01-11T11:52:32.846Z,26.7
2019-01-11T11:53:22.614Z,26.6
2019-01-11T11:54:12.106Z,26.6
2019-01-11T11:55:02.226Z,26.6
2019-01-11T11:55:52.006Z,26.6
2019-01-11T11:56:43.369Z,26.6
2019-01-11T11:57:33.674Z,26.6
2019-01-11T11:58:22.999Z,26.5
2019-01-11T11:59:13.028Z,26.5
2019-01-11T12:00:02.819Z,26.4
2019-01-11T12:00:53.156Z,26.4
2019-01-11T12:01:47.201Z,26.4
2019-01-11T12:02:33.551Z,26.4
2019-01-11T12:03:23.568Z,26.4
2019-01-11T12:04:12.761Z,26.4
2019-01-11T12:05:02.839Z,26.3
2019-01-11T12:05:53.461Z,26.3
2019-01-11T12:06:42.975Z,26.3
2019-01-11T12:07:33.265Z,26.3
2019-01-11T12:08:23.883Z,26.3
2019-01-11T12:09:13.663Z,26.3
2019-01-11T12:10:03.730Z,26.3
2019-01-11T12:10:54.095Z,26.3
2019-01-11T12:11:43.548Z,26.3
2019-01-11T12:12:35.306Z,26.3
2019-01-11T12:13:24.210Z,26.2
2019-01-11T12:14:13.995Z,26.2
2019-01-11T12:15:03.527Z,26.2
2019-01-11T12:15:53.536Z,26.2
2019-01-11T12:16:44.435Z,26.1
2019-01-11T12:17:34.505Z,26.1
2019-01-11T12:18:24.587Z,26.1
2019-01-11T12:19:14.094Z,26.1
2019-01-11T12:20:04.742Z,26.1
2019-01-11T12:20:53.904Z,26.1
2019-01-11T12:21:50.457Z,26.1
2019-01-11T12:22:34.565Z,26.1
2019-01-11T12:23:24.904Z,26.1
2019-01-11T12:24:14.952Z,26.1
2019-01-11T12:25:04.212Z,26.1
2019-01-11T12:25:54.207Z,26.1
2019-01-11T12:26:44.114Z,26.1
2019-01-11T12:27:34.141Z,26.1
2019-01-11T12:28:24.214Z,26.1
2019-01-11T12:29:14.831Z,26.1
2019-01-11T12:30:04.354Z,26.1
2019-01-11T12:30:54.366Z,26
2019-01-11T12:31:43.836Z,26
2019-01-11T12:32:34.979Z,26
2019-01-11T12:33:24.349Z,26
2019-01-11T12:34:14.379Z,26
2019-01-11T12:35:04.735Z,26
2019-01-11T12:35:54.811Z,26
2019-01-11T12:36:45.296Z,26
2019-01-11T12:37:34.334Z,25.9
2019-01-11T12:38:24.726Z,26
2019-01-11T12:39:15.495Z,25.9
2019-01-11T12:40:06.074Z,25.9
2019-01-11T12:40:55.514Z,25.9
2019-01-11T12:41:46.164Z,25.9
2019-01-11T12:42:35.332Z,25.9
2019-01-11T12:43:25.717Z,25.9
2019-01-11T12:44:16.304Z,25.9
2019-01-11T12:45:05.547Z,25.9
2019-01-11T12:45:56.392Z,25.9
2019-01-11T12:46:45.904Z,25.9
2019-01-11T12:47:36.524Z,25.9
2019-01-11T12:48:25.760Z,25.9
2019-01-11T12:49:16.687Z,25.9
2019-01-11T12:50:06.431Z,25.9
2019-01-11T12:50:55.904Z,25.9
2019-01-11T12:51:46.263Z,25.9
2019-01-11T12:52:36.580Z,25.9
2019-01-11T12:53:26.953Z,25.9
2019-01-11T12:54:16.934Z,25.9
2019-01-11T12:55:06.838Z,25.9
2019-01-11T12:55:56.865Z,25.9
2019-01-11T12:56:47.152Z,25.9
2019-01-11T12:57:36.988Z,25.9
2019-01-11T12:58:26.678Z,25.8
2019-01-11T12:59:16.411Z,25.9
2019-01-11T13:00:06.822Z,25.8
2019-01-11T13:00:57.125Z,25.8
2019-01-11T13:01:47.000Z,25.8
2019-01-11T13:02:36.826Z,25.8
2019-01-11T13:03:27.632Z,25.8
2019-01-11T13:04:17.097Z,25.7
2019-01-11T13:05:06.437Z,25.6
2019-01-11T13:05:58.036Z,25.6
2019-01-11T13:06:46.742Z,25.6
2019-01-11T13:07:36.800Z,25.5
2019-01-11T13:08:27.163Z,25.4
2019-01-11T13:09:17.454Z,25.4
2019-01-11T13:10:07.114Z,25.4
2019-01-11T13:10:57.044Z,25.4
2019-01-11T13:11:47.934Z,25.3
2019-01-11T13:12:37.816Z,25.3
2019-01-11T13:13:27.499Z,25.3
2019-01-11T13:14:17.284Z,25.2
2019-01-11T13:15:07.867Z,25.2
2019-01-11T13:15:57.928Z,25.2
2019-01-11T13:16:47.532Z,25.1
2019-01-11T13:17:37.624Z,25.1
2019-01-11T13:18:27.081Z,25.1
2019-01-11T13:19:17.446Z,25.1
2019-01-11T13:20:07.759Z,25.1
2019-01-11T13:20:57.259Z,25.1
2019-01-11T13:21:47.618Z,25
2019-01-11T13:22:38.646Z,25
2019-01-11T13:23:28.433Z,25
2019-01-11T13:24:18.503Z,25
2019-01-11T13:25:08.578Z,25
2019-01-11T13:25:58.906Z,24.9
2019-01-11T13:26:49.003Z,24.9
2019-01-11T13:27:38.708Z,24.9
2019-01-11T13:28:27.671Z,24.9
2019-01-11T13:29:18.398Z,24.9
2019-01-11T13:30:08.752Z,24.9
2019-01-11T13:30:58.688Z,24.9
2019-01-11T13:31:48.244Z,24.9
2019-01-11T13:32:38.625Z,24.9
2019-01-11T13:33:28.653Z,24.9
2019-01-11T13:34:18.453Z,24.9
2019-01-11T13:35:09.213Z,24.9
2019-01-11T13:35:58.740Z,24.9
2019-01-11T13:36:56.393Z,24.9
2019-01-11T13:37:39.898Z,24.9
2019-01-11T13:38:29.660Z,24.9
2019-01-11T13:39:20.027Z,24.8
2019-01-11T13:40:09.209Z,24.8
2019-01-11T13:40:59.840Z,24.8
2019-01-11T13:41:50.433Z,24.8
2019-01-11T13:42:40.489Z,24.8
2019-01-11T13:43:30.087Z,24.8
2019-01-11T13:44:19.293Z,24.8
2019-01-11T13:45:10.234Z,24.8
2019-01-11T13:45:59.879Z,24.8
2019-01-11T13:46:50.529Z,24.8
2019-01-11T13:47:39.539Z,24.8
2019-01-11T13:48:29.584Z,24.8
2019-01-11T13:49:19.647Z,24.8
2019-01-11T13:50:09.969Z,24.8
2019-01-11T13:51:02.252Z,24.8
2019-01-11T13:51:50.081Z,24.8
2019-01-11T13:52:40.424Z,24.8
2019-01-11T13:53:30.469Z,24.8
2019-01-11T13:54:20.301Z,24.8
2019-01-11T13:55:10.789Z,24.8
2019-01-11T13:56:00.094Z,24.8
2019-01-11T13:56:50.679Z,24.8
2019-01-11T13:57:41.219Z,24.8
2019-01-11T13:58:30.823Z,24.8
2019-01-11T13:59:20.319Z,24.7
2019-01-11T14:16:52.648Z,24.6
2019-01-11T14:17:42.968Z,24.6
2019-01-11T14:18:33.005Z,24.6
2019-01-11T14:19:23.652Z,24.6
2019-01-11T14:20:12.873Z,24.6
2019-01-11T14:21:03.475Z,24.6
2019-01-11T14:21:53.620Z,24.6
2019-01-11T14:22:43.880Z,24.6
2019-01-11T14:23:32.305Z,24.6
2019-01-11T14:24:22.928Z,24.6
2019-01-11T14:25:13.744Z,24.6
2019-01-11T14:26:03.579Z,24.6
2019-01-11T14:26:53.872Z,24.6
2019-01-11T14:27:43.440Z,24.6
2019-01-11T14:28:33.209Z,24.6
2019-01-11T14:29:23.545Z,24.6
2019-01-11T14:30:13.329Z,24.6
2019-01-11T14:31:02.843Z,24.6
2019-01-11T14:31:53.439Z,24.6
2019-01-11T14:32:43.764Z,24.6
2019-01-11T14:33:34.302Z,24.6
2019-01-11T14:34:24.152Z,24.6
2019-01-11T14:35:13.861Z,24.6
2019-01-11T14:36:03.611Z,24.6
2019-01-11T14:36:53.774Z,24.6
2019-01-11T14:37:44.312Z,24.6
2019-01-11T14:38:33.846Z,24.6
2019-01-11T14:39:24.136Z,24.6
2019-01-11T14:40:14.034Z,24.6
2019-01-11T14:41:04.234Z,24.6
2019-01-11T14:41:54.692Z,24.6
2019-01-11T14:42:44.233Z,24.6
2019-01-11T14:43:34.704Z,24.6
2019-01-11T14:44:23.952Z,24.6
2019-01-11T14:45:14.533Z,24.6
2019-01-11T14:46:05.160Z,24.6
2019-01-11T14:46:54.916Z,24.6
2019-01-11T14:47:45.327Z,24.6
2019-01-11T14:48:34.775Z,24.5
2019-01-11T14:49:25.638Z,24.5
2019-01-11T14:50:15.183Z,24.6
2019-01-11T14:51:05.231Z,24.6
2019-01-11T14:51:55.268Z,24.5
2019-01-11T14:52:45.358Z,24.5
2019-01-11T14:53:35.119Z,24.5
2019-01-11T14:54:25.186Z,24.5
2019-01-11T14:55:15.213Z,24.5
2019-01-11T14:56:05.543Z,24.5
2019-01-11T14:56:55.657Z,24.5
2019-01-11T14:57:45.468Z,24.4
2019-01-11T14:58:35.518Z,24.4
2019-01-11T14:59:25.760Z,24.4
2019-01-11T15:00:15.636Z,24.5
2019-01-11T15:01:06.335Z,24.4
2019-01-11T15:01:56.565Z,24.4
2019-01-11T15:02:46.255Z,24.4
2019-01-11T15:03:36.370Z,24.4
2019-01-11T15:04:26.136Z,24.4
2019-01-11T15:05:15.394Z,24.4
2019-01-11T15:06:05.695Z,24.4
2019-01-11T15:06:55.797Z,24.4
2019-01-11T15:07:46.245Z,24.4
2019-01-11T15:08:37.618Z,24.4
2019-01-11T15:09:26.460Z,24.4
2019-01-11T15:10:16.222Z,24.4
2019-01-11T15:11:06.567Z,24.4
2019-01-11T15:11:56.070Z,24.4
2019-01-11T15:12:46.457Z,24.4
2019-01-11T15:13:36.456Z,24.4
2019-01-11T15:14:26.507Z,24.4
2019-01-11T15:15:16.556Z,24.4
2019-01-11T15:16:06.315Z,24.4
2019-01-11T15:16:56.669Z,24.4
2019-01-11T15:17:47.601Z,24.4
2019-01-11T15:18:36.514Z,24.4
2019-01-11T15:19:26.824Z,24.4
2019-01-11T15:20:17.185Z,24.4
2019-01-11T15:21:06.960Z,24.4
2019-01-11T15:21:57.572Z,24.4
2019-01-11T15:22:46.799Z,24.4
2019-01-11T15:23:37.726Z,24.4
2019-01-11T15:24:27.451Z,24.3
2019-01-11T15:25:17.239Z,24.4
2019-01-11T15:26:07.301Z,24.4
2019-01-11T15:26:57.921Z,24.4
2019-01-11T15:27:47.420Z,24.4
2019-01-11T15:28:38.061Z,24.4
2019-01-11T15:29:28.098Z,24.4
2019-01-11T15:30:18.093Z,24.4
2019-01-11T15:31:08.213Z,24.4
2019-01-11T15:31:58.503Z,24.4
2019-01-11T15:32:47.249Z,24.4
2019-01-11T15:33:37.578Z,24.4
2019-01-11T15:34:28.438Z,24.4
2019-01-11T15:35:17.628Z,24.4
2019-01-11T15:36:08.785Z,24.3
2019-01-11T15:36:58.265Z,24.3
2019-01-11T15:37:48.671Z,24.3
2019-01-11T15:38:38.180Z,24.3
2019-01-11T15:39:28.215Z,24.3
2019-01-11T15:40:18.522Z,24.3
2019-01-11T15:41:09.162Z,24.3
2019-01-11T15:41:58.912Z,24.3
2019-01-11T15:42:48.965Z,24.3
2019-01-11T15:43:38.760Z,24.3
2019-01-11T15:44:27.990Z,24.3
2019-01-11T15:45:18.285Z,24.3
2019-01-11T15:46:14.881Z,24.3
2019-01-11T15:46:59.495Z,24.3
2019-01-11T15:47:49.597Z,24.3
2019-01-11T15:48:39.064Z,24.3
2019-01-11T15:49:29.742Z,24.3
2019-01-11T15:50:19.459Z,24.3
2019-01-11T15:51:09.238Z,24.3
2019-01-11T15:51:59.565Z,24.2
2019-01-11T15:52:49.644Z,24.3
2019-01-11T15:53:39.882Z,24.2
2019-01-11T15:54:29.174Z,24.2
2019-01-11T15:55:19.851Z,24.2
2019-01-11T15:56:09.051Z,24.2
2019-01-11T15:56:59.947Z,24.2
2019-01-11T15:57:50.309Z,24.2
2019-01-11T15:58:39.465Z,24.2
2019-01-11T15:59:29.837Z,24.2
2019-01-11T16:00:20.114Z,24.1
2019-01-11T16:01:09.651Z,24.2
2019-01-11T16:01:59.961Z,24.1
2019-01-11T16:02:49.449Z,24.1
2019-01-11T16:03:39.524Z,24.1
2019-01-11T16:04:30.134Z,24.1
2019-01-11T16:05:20.191Z,24.1
2019-01-11T16:06:10.244Z,24.1
2019-01-11T16:07:00.026Z,24.1
2019-01-11T16:07:51.824Z,24.1
2019-01-11T16:08:40.171Z,24.1
2019-01-11T16:09:30.821Z,24.1
2019-01-11T16:10:19.972Z,24
2019-01-11T16:11:10.397Z,23.9